• Join FlightAware (Why Join?)
  • Login
  • US Flag 
11:04PM EDT


 

Airport Tracker/Info


-or-


 

Live Flight TrackerFlight Track Log ✈ N789EX ✈ 10-Nov-2013 ✈ KMWH - KBFI

Flight Track Log - Related Links

Times and Time Zones

All times are in EST time to prevent confusion due to time zone crossing. See the N789EX flight status page for this flight to view local times or setup timezone preferences in your user account.

Time Position Orientation Groundspeed Altitude Reporting Facility
EST Latitude Longitude Course Direction KTS MPH feet Rate Location/Type
04:51PM 47.2631 -119.3614 230° Southwest 195 224 3,200  Level Seattle Center
04:52PM 47.2281 -119.4419 237° Southwest 264 304 5,500 900 Climbing Seattle Center
04:57PM 47.2282 -119.4818 230° Southwest  Level Estimated
04:58PM 46.8910 -119.7600 237° Southwest 319 367 9,800  Level FlightAware
04:58PM 46.8720 -119.7240 128° Southeast 317 365 9,800  Level FlightAware
04:59PM 46.8420 -119.6700 129° Southeast 317 365 9,800  Level FlightAware
04:59PM 46.8230 -119.6340 128° Southeast 317 365 9,800  Level FlightAware
05:00PM 46.7810 -119.5640 131° Southeast 321 369 9,800  Level FlightAware
05:00PM 46.7640 -119.5310 127° Southeast 323 372 9,800  Level FlightAware
05:01PM 46.7440 -119.4900 125° Southeast 323 372 9,800  Level FlightAware
05:01PM 46.7180 -119.4350 125° Southeast 323 372 9,800  Level FlightAware
05:02PM 46.7000 -119.3970 125° Southeast 323 372 9,800  Level FlightAware
05:02PM 46.6820 -119.3610 126° Southeast 323 372 9,800 120 Level FlightAware
05:03PM 46.6469 -119.1869 126° Southeast 320 368 10,000 60 Climbing Seattle Center
05:04PM 46.6058 -119.0694 117° Southeast 326 375 10,000  Level Seattle Center
05:05PM 46.5642 -118.9550 118° Southeast 321 369 10,000 -60 Level Seattle Center
05:06PM 46.5194 -118.8339 118° Southeast 332 382 9,900  Descending Seattle Center
05:07PM 46.4714 -118.7031 118° Southeast 365 420 10,000  Climbing Seattle Center
05:08PM 46.4231 -118.5717 118° Southeast 371 427 10,000 -60 Level Seattle Center
05:09PM 46.3683 -118.4258 118° Southeast 371 427 9,900 -120 Descending Seattle Center
05:10PM 46.3244 -118.3131 119° Southeast 368 423 9,800  Descending Seattle Center
05:11PM 46.2764 -118.1853 119° Southeast 365 420 9,900 60 Climbing Seattle Center
05:12PM 46.2275 -118.0569 119° Southeast 367 422 10,000  Climbing Seattle Center
05:13PM 46.1781 -117.9297 119° Southeast 367 422 10,000  Level Seattle Center
05:14PM 46.1264 -117.8022 120° Southeast 369 425 10,000 -60 Level Seattle Center
05:16PM 46.0639 -117.6564 122° Southeast 360 414 9,900 -60 Descending Seattle Center
05:17PM 46.0103 -117.5322 122° Southeast 364 419 9,900  Level Seattle Center
05:18PM 45.9567 -117.4100 122° Southeast 363 418 9,900  Level Seattle Center
05:19PM 45.9936 -117.3136 61° Northeast 387 445 9,900  Level Seattle Center
05:20PM 46.0211 -117.4308 289° West 332 382 10,000  Climbing Seattle Center
05:21PM 46.0372 -117.5564 281° West 321 369 9,900  Descending Seattle Center
05:22PM 46.0528 -117.6803 280° West 317 365 10,000  Climbing Seattle Center
05:23PM 46.0936 -117.7933 298° West 324 373 9,900 -60 Descending Seattle Center
05:24PM 46.1364 -117.8939 302° West 298 343 9,900 -60 Level Seattle Center
05:25PM 46.1714 -117.9853 299° West 267 307 9,800  Descending Seattle Center
05:26PM 46.2053 -118.0728 299° West 253 291 9,900 -60 Climbing Seattle Center
05:27PM 46.2422 -118.1575 302° West 251 289 9,700 60 Descending Seattle Center
05:28PM 46.2819 -118.2425 304° West 254 292 10,100 60 Climbing Seattle Center
05:29PM 46.3278 -118.3211 310° West 257 296 9,900 -60 Descending Seattle Center
05:30PM 46.3739 -118.3969 311° West 250 288 10,000 -60 Climbing Seattle Center
05:31PM 46.4197 -118.5025 302° West 256 295 9,800 -120 Descending Seattle Center
05:32PM 46.4553 -118.5908 300° West 255 293 9,800 -120 Level Seattle Center
05:33PM 46.4933 -118.6758 303° West 252 290 9,600 60 Descending Seattle Center
05:34PM 46.5311 -118.7592 303° West 249 287 10,000 60 Climbing Seattle Center
05:35PM 46.5656 -118.8492 299° West 255 293 9,800  Descending Seattle Center
05:36PM 46.5978 -118.9317 300° West 247 284 10,000 60 Climbing Seattle Center
05:37PM 46.6422 -119.0128 309° West 257 296 10,000  Level Seattle Center
05:38PM 46.6872 -119.0908 310° West 263 303 10,000 -120 Level Seattle Center
05:39PM 46.7203 -119.1803 298° West 253 291 9,800  Descending Seattle Center
05:40PM 46.7686 -119.2750 307° West 258 297 10,000 120 Climbing Seattle Center
05:41PM 46.8017 -119.3561 301° West 259 298 10,100  Climbing Seattle Center
05:42PM 46.8772 -119.3181 19° North 364 419 10,000 -60 Descending Seattle Center
05:43PM 46.8258 -119.1781 118° Southeast 426 490 10,000  Level Seattle Center
05:44PM 46.7306 -119.0364 134° Southeast 424 488 10,000 -60 Level Seattle Center
05:45PM 46.6556 -118.9042 130° Southeast 423 487 9,900 -120 Descending Seattle Center
05:46PM 46.5786 -118.7681 129° Southeast 422 486 9,800  Descending Seattle Center
05:47PM 46.5039 -118.6375 130° Southeast 417 480 10,000 240 Climbing Seattle Center
05:48PM 46.4306 -118.5106 130° Southeast 413 475 10,300 60 Climbing Seattle Center
05:49PM 46.3547 -118.3822 131° Southeast 420 483 10,200 -180 Descending Seattle Center
05:50PM 46.2856 -118.2453 126° Southeast 423 487 10,000 -120 Descending Seattle Center
05:51PM 46.2233 -118.0992 122° Southeast 430 495 10,000 -60 Level Seattle Center
05:52PM 46.1642 -117.9494 120° Southeast 432 497 9,900 -60 Descending Seattle Center
05:53PM 46.1050 -117.8033 120° Southeast 424 488 9,900  Level Seattle Center
05:54PM 46.0039 -117.7842 172° South 404 465 10,000 60 Climbing Seattle Center
05:55PM 45.9878 -117.9236 261° West 389 448 10,100  Climbing Seattle Center
05:56PM 46.0689 -118.0300 318° Northwest 398 458 10,000  Descending Seattle Center
05:57PM 46.1503 -118.1350 318° Northwest 395 455 10,100  Climbing Seattle Center
05:58PM 46.2322 -118.2397 319° Northwest 394 453 10,100  Level Seattle Center
05:59PM 46.3150 -118.3444 319° Northwest 396 456 10,100 -60 Level Seattle Center
06:04PM 46.5960 -119.0370 319° Northwest 387 445 10,000 -60 Descending FlightAware
06:05PM 46.6250 -119.1140 299° West 387 445 10,000  Level FlightAware
06:05PM 46.6430 -119.1610 299° West 387 445 10,000  Level FlightAware
06:06PM 46.6610 -119.2080 299° West 387 445 10,000  Level FlightAware
06:06PM 46.6780 -119.2540 298° West 387 445 10,000 1,560 Level FlightAware
06:07PM 46.7360 -119.3890 302° West 302 348 12,100 2,100 Climbing FlightAware
06:08PM 46.7740 -119.4870 300° West 327 376 13,900 2,160 Climbing FlightAware
06:09PM 46.8130 -119.5830 301° West 331 381 15,900 2,220 Climbing FlightAware
06:09PM 46.8370 -119.6460 299° West 339 390 17,000 1,980 Climbing FlightAware
06:10PM 46.8600 -119.6970 303° West 350 403 17,900 2,100 Climbing FlightAware
06:10PM 46.9060 -119.7260 337° Northwest 383 441 19,000 1,920 Climbing FlightAware
06:11PM 46.9540 -119.6980 22° Northeast 420 483 19,800 1,440 Climbing FlightAware
06:11PM 46.9800 -119.6270 62° Northeast 436 502 20,400 1,380 Climbing FlightAware
06:12PM 46.9490 -119.5150 112° Southeast 414 476 21,500 1,740 Climbing FlightAware
06:13PM 46.8560 -119.4300 148° Southeast 406 467 23,400 1,920 Climbing FlightAware
06:14PM 46.7740 -119.3540 148° Southeast 400 460 25,100 1,560 Climbing FlightAware
06:14PM 46.7030 -119.2560 137° Southeast 417 480 26,200 1,320 Climbing FlightAware
06:15PM 46.6650 -119.1840 128° Southeast 419 482 27,000 1,380 Climbing FlightAware
06:16PM 46.6240 -119.1060 127° Southeast 416 479 27,800 1,140 Climbing FlightAware
06:17PM 46.5650 -118.9700 122° Southeast 422 486 28,800 660 Climbing FlightAware
06:17PM 46.5380 -118.9040 121° Southeast 429 494 28,800 300 Level FlightAware
06:18PM 46.4930 -118.7960 121° Southeast 439 505 29,200 660 Climbing FlightAware
06:19PM 46.4340 -118.6390 119° Southeast 442 509 30,000 420 Climbing FlightAware
06:20PM 46.3850 -118.5050 118° Southeast 437 503 30,000 -60 Level FlightAware
06:20PM 46.3350 -118.3680 118° Southeast 437 503 29,900 -120 Descending FlightAware
06:21PM 46.2840 -118.2070 115° Southeast 441 507 29,800 60 Descending FlightAware
06:22PM 46.2620 -118.1340 114° Southeast 436 502 30,000 60 Climbing FlightAware
06:23PM 46.2060 -117.9830 118° Southeast 434 499 29,900  Descending FlightAware
06:23PM 46.1700 -117.8940 120° Southeast 436 502 30,000 120 Climbing FlightAware
06:24PM 46.1150 -117.7450 118° Southeast 456 525 30,100 60 Climbing FlightAware
06:25PM 46.0830 -117.6510 116° Southeast 455 524 30,100 -180 Level FlightAware
06:26PM 46.0290 -117.4850 115° Southeast 454 522 29,900 -60 Descending FlightAware
06:27PM 45.9810 -117.3430 116° Southeast 462 532 30,000 120 Climbing FlightAware
06:27PM 45.9430 -117.2420 118° Southeast 476 548 30,100 180 Climbing FlightAware
06:28PM 45.9250 -117.1830 114° Southeast 483 556 30,200 -120 Climbing FlightAware
06:28PM 45.9360 -117.0730 82° East 480 552 30,000 -120 Descending FlightAware
06:29PM 46.0060 -117.0120 31° Northeast 446 513 30,100  Climbing FlightAware
06:30PM 46.0570 -117.0340 343° North 414 476 30,000 -120 Descending FlightAware
06:30PM 46.0940 -117.1490 295° West 388 447 30,000 60 Level FlightAware
06:31PM 46.1190 -117.2940 284° West 389 448 30,200 120 Climbing FlightAware
06:32PM 46.1330 -117.3880 282° West 388 447 30,200 -300 Level FlightAware
06:32PM 46.1430 -117.4720 280° West 386 444 29,900 -180 Descending FlightAware
06:34PM 46.1660 -117.6220 283° West 394 453 30,000 60 Climbing FlightAware
06:34PM 46.1770 -117.7000 282° West 409 471 30,000 60 Level FlightAware
06:35PM 46.2020 -117.8350 285° West 426 490 30,100  Climbing FlightAware
06:35PM 46.2150 -117.9070 285° West 424 488 30,000 -180 Descending FlightAware
06:36PM 46.2430 -118.0600 285° West 422 486 29,900  Descending FlightAware
06:37PM 46.2660 -118.2040 283° West 417 480 30,000 120 Climbing FlightAware
06:38PM 46.3000 -118.3270 292° West 423 487 30,100  Climbing FlightAware
06:39PM 46.3610 -118.4730 301° West 441 507 30,100  Level FlightAware
06:39PM 46.3960 -118.5570 301° West 447 514 30,100  Level FlightAware
06:40PM 46.4350 -118.6520 301° West 447 514 30,100  Level FlightAware
06:40PM 46.4640 -118.7270 299° West 444 511 30,100 -180 Level FlightAware
06:41PM 46.5100 -118.8570 297° West 445 512 29,900  Descending FlightAware
06:42PM 46.5690 -119.0160 298° West 458 527 30,100 60 Climbing FlightAware
06:43PM 46.6230 -119.1660 298° West 454 522 30,100 -120 Level FlightAware
06:44PM 46.6720 -119.3150 296° West 458 527 29,900  Descending FlightAware
06:45PM 46.7110 -119.4350 295° West 456 525 30,100 120 Climbing FlightAware
06:45PM 46.7420 -119.5410 293° West 455 524 30,100 -120 Level FlightAware
06:46PM 46.7860 -119.6990 292° West 455 524 30,000 -60 Descending FlightAware
06:47PM 46.8210 -119.8370 290° West 446 513 30,000 -120 Level FlightAware
06:48PM 46.8490 -119.8940 306° West 440 506 29,900 -660 Descending FlightAware
06:48PM 46.8790 -119.9470 310° West 418 481 29,500 -960 Descending FlightAware
06:48PM 46.8950 -120.0200 288° West 395 455 29,100 -1,920 Descending FlightAware
06:49PM 46.9080 -120.1220 281° West 401 461 27,400 -3,300 Descending FlightAware
06:50PM 46.9240 -120.2390 281° West 391 450 24,600 -2,040 Descending FlightAware
06:51PM 46.9450 -120.3860 282° West 396 456 24,000 -420 Descending FlightAware
06:51PM 46.9600 -120.4950 281° West 400 460 24,000  Level FlightAware
06:52PM 46.9810 -120.6440 282° West 400 460 24,000 -1,200 Level FlightAware
06:53PM 47.0000 -120.7750 282° West 404 465 21,900 -3,360 Descending FlightAware
06:54PM 47.0190 -120.9290 280° West 397 457 18,000 -3,780 Descending FlightAware
06:55PM 47.0260 -121.0030 278° West 380 437 16,500 -2,340 Descending FlightAware
06:56PM 47.0380 -121.1260 278° West 314 361 14,900 -2,160 Descending FlightAware
06:57PM 47.0500 -121.2490 278° West 284 327 12,400 -2,340 Descending FlightAware
06:57PM 47.0540 -121.2980 277° West 273 314 11,400 -1,140 Descending FlightAware
06:58PM 47.0640 -121.4070 278° West 264 304 10,800 -420 Descending FlightAware
06:59PM 47.0700 -121.4660 279° West 268 308 10,800  Level FlightAware
06:59PM 47.0810 -121.5430 282° West 269 310 10,800  Level FlightAware
07:00PM 47.1000 -121.5710 315° West 275 316 10,800 -1,140 Level FlightAware
07:00PM 47.1310 -121.6380 304° West 270 311 9,700 -1,860 Descending FlightAware
07:01PM 47.1480 -121.6710 307° West 270 311 8,700 -2,220 Descending FlightAware
07:01PM 47.1750 -121.7210 308° West 260 299 7,500 -2,160 Descending FlightAware
07:02PM 47.1900 -121.7480 309° West 251 289 6,900 -1,860 Descending FlightAware
07:02PM 47.2130 -121.7910 308° West 238 274 5,900 -1,140 Descending FlightAware
07:03PM 47.2280 -121.8170 310° West 207 238 5,800 -120 Descending FlightAware
07:03PM 47.2410 -121.8500 300° West 194 223 5,800  Level FlightAware
07:04PM 47.2380 -121.8870 263° West 191 220 5,800  Level FlightAware
07:04PM 47.2340 -121.9220 260° West 191 220 5,800 -240 Level FlightAware
07:04PM 47.2300 -121.9510 259° West 184 212 5,600 -1,200 Descending FlightAware
07:05PM 47.2270 -121.9750 260° West 186 214 5,000 -1,380 Descending FlightAware
07:05PM 47.2250 -121.9980 263° West 192 221 4,800 -900 Descending FlightAware
07:06PM 47.2360 -122.0320 295° West 199 229 4,300 -1,140 Descending FlightAware
07:06PM 47.2450 -122.0560 299° West 199 229 3,900 -1,440 Descending FlightAware
07:06PM 47.2680 -122.0830 321° Northwest 202 232 3,100 -1,200 Descending FlightAware
07:07PM 47.2860 -122.0970 332° Northwest 194 223 2,800 -480 Descending FlightAware
07:07PM 47.3000 -122.1090 330° Northwest 177 204 2,800 -720 Level FlightAware
07:08PM 47.3170 -122.1230 331° Northwest 173 199 2,300 -1,260 Descending FlightAware
07:08PM 47.3340 -122.1370 331° Northwest 171 197 1,800 -840 Descending FlightAware
07:08PM 47.3400 -122.1430 326° Northwest 170 196 1,800  Level FlightAware
07:09PM 47.3660 -122.1640 331° Northwest 171 197 1,800  Level FlightAware
07:09PM 47.3860 -122.1820 329° Northwest 172 198 1,800  Level FlightAware
07:10PM 47.4060 -122.1990 330° Northwest 173 199 1,800  Level FlightAware
07:10PM 47.4220 -122.2120 331° Northwest 173 199 1,800 -120 Level FlightAware
07:11PM 47.4430 -122.2310 329° Northwest 169 194 1,700 -480 Descending FlightAware
07:11PM 47.4540 -122.2400 331° Northwest 168 193 1,400 -1,020 Descending FlightAware
07:11PM 47.4750 -122.2570 331° Northwest 160 184 900 -1,020 Descending FlightAware
07:12PM 47.4910 -122.2700 331° Northwest 156 180 500 -840 Descending FlightAware
07:12PM 47.4990 -122.2760 333° Northwest 163 188 300 -300 Descending FlightAware
07:13PM 47.5411 -122.3122 333° Northwest 159 183 100 -180 Descending Seattle Center
07:15PM 47.5300 -122.3020 180° South  Level Estimated